Date,TemperatureHighF,TemperatureAvgF,TemperatureLowF,DewpointHighF,DewpointAvgF,DewpointLowF,HumidityHigh,HumidityAvg,HumidityLow,PressureMaxIn,PressureMinIn,WindSpeedMaxMPH,WindSpeedAvgMPH,GustSpeedMaxMPH,PrecipitationSumIn
2013-2-1,40,27,19,37,15,4,100,62,34,30.44,30.01,10,5,0,0.00
2013-2-2,33,27,22,33,25,15,100,94,68,30.42,30.10,8,3,0,0.00
2013-2-3,43,35,31,39,32,27,100,91,59,30.19,30.02,8,4,0,0.00
2013-2-4,46,36,26,32,28,25,99,77,44,30.19,29.97,6,2,0,0.00
2013-2-5,57,47,42,42,37,31,89,67,38,30.05,29.94,9,5,0,0.00
2013-2-6,58,49,38,46,35,19,100,66,24,30.22,30.03,6,3,0,0.00
2013-2-7,53,48,43,49,36,26,100,67,38,30.17,29.96,9,4,0,0.00
2013-2-8,52,45,38,51,41,29,100,86,46,30.30,29.92,8,4,0,0.00
2013-2-9,52,41,31,33,25,12,99,59,20,30.38,30.25,11,6,0,0.00
2013-2-10,59,48,42,51,31,20,100,58,21,30.26,30.00,10,3,0,0.00
2013-2-11,55,51,46,55,44,25,100,81,32,30.15,29.99,10,6,0,0.00
2013-2-12,51,46,40,46,30,21,100,57,31,30.21,29.90,10,4,0,0.00
2013-2-13,45,42,37,45,42,37,100,99,93,30.00,29.72,10,4,0,0.00
2013-2-14,53,43,36,42,36,31,100,80,46,30.10,29.99,9,3,0,0.00
2013-2-15,50,43,37,44,39,34,100,89,65,30.13,30.05,8,4,0,0.00
2013-2-16,38,32,28,35,22,6,97,68,29,30.17,30.03,7,3,0,0.00
2013-2-17,41,31,21,19,10,1,92,44,19,30.28,30.16,10,3,0,0.00
2013-2-18,57,43,28,26,20,11,87,42,26,30.32,30.01,11,4,0,0.00
2013-2-19,51,43,36,45,28,4,100,64,15,30.21,29.96,13,7,0,0.00
2013-2-20,39,34,28,23,14,6,76,45,26,30.27,30.19,8,4,0,0.00
2013-2-21,49,38,29,44,19,11,100,50,25,30.26,30.00,12,7,0,0.00
2013-2-22,51,45,38,51,45,38,100,100,99,30.13,30.01,8,4,0,0.00
2013-2-23,56,48,44,53,48,44,100,98,82,30.05,29.86,6,3,0,0.00
2013-2-24,54,44,34,46,29,19,100,62,25,30.10,29.93,8,4,0,0.00
2013-2-25,50,41,38,25,23,21,54,48,34,30.08,29.97,12,8,0,0.00
2013-2-26,55,47,40,54,46,40,100,96,84,29.72,29.47,3,-931,0,0.00
2013-2-27,45,41,39,41,39,36,100,93,74,29.88,29.72,10,-471,0,0.00
2013-2-28,39,36,33,37,31,25,99,83,61,30.02,29.84,8,5,0,0.00